createdAt,value
2019-04-30T00:00:34.712Z,143860.28
2019-04-30T00:05:30.935Z,143846.22
2019-04-30T00:10:35.390Z,143837.98
2019-04-30T00:15:25.746Z,143821.56
2019-04-30T00:20:21.841Z,143809.81
2019-04-30T00:25:19.730Z,143825.08
2019-04-30T00:30:16.012Z,143805.14
2019-04-30T00:35:16.283Z,143840.34
2019-04-30T00:40:12.188Z,143818.05
2019-04-30T00:45:10.004Z,143815.69
2019-04-30T00:50:07.163Z,143822.72
2019-04-30T00:55:09.056Z,143796.91
2019-04-30T01:00:06.330Z,143747.63
2019-04-30T01:05:13.092Z,143694.81
2019-04-30T01:10:11.325Z,143678.36
2019-04-30T01:15:11.114Z,143659.59
2019-04-30T01:20:06.289Z,143649.06
2019-04-30T01:25:12.030Z,143604.50
2019-04-30T01:30:05.680Z,143602.16
2019-04-30T01:35:01.707Z,143588.09
2019-04-30T01:39:58.900Z,143557.59
2019-04-30T01:44:55.567Z,143554.09
2019-04-30T01:49:51.497Z,143513.06
2019-04-30T01:54:49.060Z,143520.08
2019-04-30T02:00:02.033Z,143523.59
2019-04-30T02:04:59.189Z,143528.25
2019-04-30T02:09:55.181Z,143517.72
2019-04-30T02:14:51.825Z,143513.06
2019-04-30T02:19:54.729Z,143508.34
2019-04-30T02:24:45.799Z,143489.59
2019-04-30T02:29:41.699Z,143480.22
2019-04-30T02:34:41.153Z,143466.17
2019-04-30T02:39:40.124Z,143420.44
2019-04-30T02:44:36.216Z,143353.66
2019-04-30T02:49:32.250Z,143303.30
2019-04-30T02:54:29.838Z,143358.33
2019-04-30T02:59:25.910Z,143379.44
2019-04-30T03:04:21.911Z,143406.41
2019-04-30T03:09:20.179Z,143435.69
2019-04-30T03:14:15.684Z,143438.03
2019-04-30T03:19:29.483Z,143450.92
2019-04-30T03:24:25.772Z,143468.47
2019-04-30T03:29:24.041Z,143472.03
2019-04-30T03:34:25.240Z,143475.55
2019-04-30T03:39:19.735Z,143470.84
2019-04-30T03:44:21.669Z,143483.72
2019-04-30T03:49:13.621Z,143450.92
2019-04-30T03:54:10.261Z,143479.06
2019-04-30T03:59:06.302Z,143469.69
2019-04-30T04:04:20.904Z,143438.03
2019-04-30T04:09:24.338Z,143463.81
2019-04-30T04:14:20.351Z,143481.38
2019-04-30T04:19:16.274Z,143491.94
2019-04-30T04:24:12.405Z,143428.66
2019-04-30T04:29:09.516Z,143447.41
2019-04-30T04:34:06.246Z,143401.69
2019-04-30T04:39:03.579Z,143388.81
2019-04-30T04:44:00.610Z,143402.84
2019-04-30T04:48:59.481Z,143405.20
2019-04-30T04:53:54.381Z,143407.56
2019-04-30T04:58:50.408Z,143367.70
2019-04-30T05:03:48.830Z,143398.19
2019-04-30T05:08:44.324Z,143447.41
2019-04-30T05:13:40.249Z,143491.94
2019-04-30T05:18:36.287Z,143473.19
2019-04-30T05:23:32.205Z,143435.69
2019-04-30T05:28:29.864Z,143445.06
2019-04-30T05:33:25.965Z,143377.08
2019-04-30T05:38:21.931Z,143416.94
2019-04-30T05:48:08.918Z,143531.81
2019-04-30T05:53:04.918Z,143491.94
2019-04-30T05:58:01.459Z,143508.34
2019-04-30T06:02:59.482Z,143521.23
2019-04-30T06:07:55.569Z,143420.44
2019-04-30T06:12:56.495Z,143355.97
2019-04-30T06:18:00.303Z,143361.84
2019-04-30T06:22:54.887Z,143370.06
2019-04-30T06:27:51.120Z,143426.31
2019-04-30T06:32:49.465Z,143428.66
2019-04-30T06:37:45.407Z,143487.23
2019-04-30T06:42:41.465Z,143477.86
2019-04-30T06:47:38.910Z,143401.69
2019-04-30T06:52:35.140Z,143398.19
2019-04-30T06:57:31.069Z,143520.08
2019-04-30T07:02:30.642Z,143537.64
2019-04-30T07:07:36.286Z,143495.45
2019-04-30T07:12:28.562Z,143441.55
2019-04-30T07:17:24.304Z,143481.38
2019-04-30T07:22:36.062Z,143521.23
2019-04-30T07:27:23.728Z,143574.00
2019-04-30T07:32:15.895Z,143775.78
2019-04-30T07:37:20.501Z,143704.20
2019-04-30T07:42:09.685Z,143774.63
2019-04-30T07:47:05.645Z,143856.75
2019-04-30T07:52:02.473Z,143691.25
2019-04-30T07:57:00.529Z,143670.19
2019-04-30T08:02:07.614Z,143801.63
2019-04-30T08:06:56.765Z,143916.63
2019-04-30T08:11:52.784Z,143870.88
2019-04-30T08:16:50.976Z,143942.44
2019-04-30T08:21:48.501Z,143903.72
2019-04-30T08:26:44.565Z,144089.23
2019-04-30T08:31:40.942Z,143900.19
2019-04-30T08:36:38.658Z,143897.84
2019-04-30T08:41:34.800Z,144036.38
2019-04-30T08:46:30.733Z,144266.72
2019-04-30T08:51:30.528Z,144391.30
2019-04-30T08:56:24.596Z,144229.11
2019-04-30T09:01:20.602Z,144244.39
2019-04-30T09:06:19.562Z,144447.78
2019-04-30T09:11:25.047Z,144252.59
2019-04-30T09:16:13.514Z,144274.92
2019-04-30T09:21:10.125Z,144407.78
2019-04-30T09:26:06.024Z,144310.22
2019-04-30T09:31:03.250Z,144499.56
2019-04-30T09:35:59.608Z,144431.34
2019-04-30T09:40:55.777Z,144454.87
2019-04-30T09:45:51.728Z,144605.41
2019-04-30T09:50:50.422Z,144546.61
2019-04-30T09:55:46.631Z,144514.86
2019-04-30T10:00:42.649Z,144579.53
2019-04-30T10:05:39.106Z,144751.41
2019-04-30T10:10:38.753Z,144751.41
2019-04-30T10:15:36.750Z,144910.34
2019-04-30T10:20:47.775Z,144823.23
2019-04-30T10:25:43.793Z,144849.13
2019-04-30T10:30:39.737Z,144723.16
2019-04-30T10:35:35.691Z,144802.03
2019-04-30T10:40:31.617Z,144852.66
2019-04-30T10:45:28.817Z,144904.45
2019-04-30T10:50:32.207Z,144976.36
2019-04-30T10:55:28.717Z,145067.09
2019-04-30T11:00:39.016Z,145406.69
2019-04-30T11:05:35.315Z,145161.38
2019-04-30T11:10:31.341Z,145229.81
2019-04-30T11:15:28.840Z,145192.03
2019-04-30T11:20:35.619Z,145201.47
2019-04-30T11:25:32.501Z,145236.88
2019-04-30T11:30:29.706Z,145268.70
2019-04-30T11:35:26.255Z,145140.14
2019-04-30T11:40:31.714Z,145232.13
2019-04-30T11:45:26.514Z,145203.78
2019-04-30T11:50:23.672Z,145245.14
2019-04-30T11:55:19.895Z,145305.28
2019-04-30T12:00:24.149Z,145515.27
2019-04-30T12:05:20.922Z,145345.34
2019-04-30T12:10:19.474Z,145347.70
2019-04-30T12:15:15.701Z,145368.95
2019-04-30T12:20:12.073Z,145583.72
2019-04-30T12:25:10.055Z,145406.69
2019-04-30T12:30:06.722Z,145387.81
2019-04-30T12:35:05.106Z,145486.94
2019-04-30T12:40:01.341Z,145410.22
2019-04-30T12:44:57.272Z,145306.44
2019-04-30T12:50:06.946Z,145370.11
2019-04-30T12:55:15.197Z,145479.88
2019-04-30T13:00:09.424Z,145478.72
2019-04-30T13:05:05.894Z,145680.53
2019-04-30T13:10:12.934Z,145452.67
2019-04-30T13:15:12.367Z,145603.77
2019-04-30T13:20:18.604Z,145590.80
2019-04-30T13:25:14.616Z,145529.45
2019-04-30T13:30:20.244Z,145578.97
2019-04-30T13:35:19.007Z,145593.17
2019-04-30T13:40:23.369Z,145520.00
2019-04-30T13:45:20.889Z,145630.94
2019-04-30T13:50:20.981Z,145697.09
2019-04-30T13:55:19.081Z,145495.22
2019-04-30T14:00:30.138Z,145726.59
2019-04-30T14:05:29.637Z,145581.34
2019-04-30T14:10:29.423Z,145597.86
2019-04-30T14:15:38.560Z,145602.61
2019-04-30T14:20:37.100Z,145551.86
2019-04-30T14:25:36.976Z,145597.86
2019-04-30T14:30:34.688Z,145645.08
2019-04-30T14:35:33.512Z,145682.91
2019-04-30T14:40:30.536Z,145880.16
2019-04-30T14:45:28.994Z,145663.97
2019-04-30T14:50:35.175Z,145616.75
2019-04-30T14:55:42.354Z,145571.91
2019-04-30T15:00:59.227Z,145814.00
2019-04-30T15:05:54.936Z,145730.14
2019-04-30T15:10:50.865Z,145741.97
2019-04-30T15:15:46.897Z,145698.27
2019-04-30T15:20:49.598Z,145694.72
2019-04-30T15:25:45.501Z,145782.12
2019-04-30T15:30:42.102Z,145654.53
2019-04-30T15:35:38.171Z,145699.47
2019-04-30T15:40:34.099Z,145723.06
2019-04-30T15:45:30.230Z,145733.67
2019-04-30T15:50:39.281Z,145678.16
2019-04-30T15:55:35.346Z,145767.92
2019-04-30T16:00:31.887Z,145756.11
2019-04-30T16:05:29.730Z,145671.09
2019-04-30T16:10:36.794Z,145720.69
2019-04-30T16:15:32.810Z,145803.34
2019-04-30T16:20:39.278Z,145905.02
2019-04-30T16:25:35.724Z,145667.50
2019-04-30T16:30:31.710Z,145704.17
2019-04-30T16:35:29.573Z,145945.16
2019-04-30T16:40:25.706Z,145862.42
2019-04-30T16:45:21.746Z,145737.25
2019-04-30T16:50:19.447Z,145782.12
2019-04-30T16:55:16.077Z,145707.70
2019-04-30T17:00:13.307Z,145680.53
2019-04-30T17:05:23.267Z,145785.66
2019-04-30T17:10:33.328Z,145810.47
2019-04-30T17:15:31.161Z,145694.72
2019-04-30T17:20:41.026Z,145692.34
2019-04-30T17:25:37.083Z,145673.41
2019-04-30T17:30:33.004Z,145857.72
2019-04-30T17:35:29.025Z,145819.91
2019-04-30T17:40:25.224Z,145817.53
2019-04-30T17:45:21.423Z,145600.23
2019-04-30T17:50:19.021Z,145599.08
2019-04-30T17:55:15.246Z,145498.75
2019-04-30T18:00:18.781Z,145432.64
2019-04-30T18:05:11.744Z,145498.75
2019-04-30T18:10:13.791Z,145453.88
2019-04-30T18:15:15.310Z,145484.56
2019-04-30T18:20:36.773Z,145399.63
2019-04-30T18:25:37.275Z,145352.44
2019-04-30T18:30:35.154Z,145251.00
2019-04-30T18:35:31.311Z,145203.78
2019-04-30T18:40:27.244Z,145147.20
2019-04-30T18:45:23.174Z,145072.98
2019-04-30T18:50:20.669Z,145054.13
2019-04-30T18:55:16.700Z,144991.69
2019-04-30T19:00:14.957Z,144853.81
2019-04-30T19:05:13.752Z,144805.56
2019-04-30T19:10:17.441Z,144826.77
2019-04-30T19:15:18.056Z,144782.03
2019-04-30T19:20:18.815Z,144746.69
2019-04-30T19:25:15.087Z,144709.02
2019-04-30T19:30:11.314Z,144620.70
2019-04-30T19:35:09.024Z,144643.06
2019-04-30T19:40:08.564Z,144624.23
2019-04-30T19:45:10.071Z,144624.23
2019-04-30T19:50:04.277Z,144619.55
2019-04-30T19:55:00.199Z,144614.81
2019-04-30T19:59:56.271Z,144636.02
2019-04-30T20:04:52.201Z,144619.55
2019-04-30T20:10:00.198Z,144621.91
2019-04-30T20:14:46.034Z,144624.23
2019-04-30T20:19:41.964Z,144641.91
2019-04-30T20:24:39.410Z,144612.50
2019-04-30T20:29:35.485Z,144607.77
2019-04-30T20:34:31.423Z,144568.97
2019-04-30T20:39:44.362Z,144532.47
2019-04-30T20:44:40.304Z,144541.89
2019-04-30T20:49:36.242Z,144525.42
2019-04-30T20:54:32.281Z,144521.91
2019-04-30T20:59:29.138Z,144525.42
2019-04-30T21:04:25.282Z,144501.92
2019-04-30T21:09:21.229Z,144497.19
2019-04-30T21:14:19.184Z,144460.72
2019-04-30T21:19:15.082Z,144436.06
2019-04-30T21:24:11.010Z,144381.89
2019-04-30T21:29:13.159Z,144346.63
2019-04-30T21:34:15.770Z,144344.27
2019-04-30T21:39:11.705Z,144310.22
2019-04-30T21:44:07.651Z,144290.20
2019-04-30T21:49:03.574Z,144273.75
2019-04-30T21:53:59.519Z,144292.56
2019-04-30T21:58:55.450Z,144280.80
2019-04-30T22:03:51.578Z,144250.23
2019-04-30T22:08:48.577Z,144207.94
2019-04-30T22:13:44.780Z,144193.87
2019-04-30T22:18:40.725Z,144186.78
2019-04-30T22:23:36.650Z,144159.78
2019-04-30T22:28:32.976Z,144143.31
2019-04-30T22:33:29.307Z,144104.56
2019-04-30T22:38:30.254Z,144078.69
2019-04-30T22:43:26.299Z,144076.31
2019-04-30T22:48:22.226Z,144072.80
2019-04-30T22:53:18.149Z,144041.09
2019-04-30T22:58:14.186Z,144012.91
2019-04-30T23:03:12.227Z,143928.38
2019-04-30T23:08:08.163Z,143964.78
2019-04-30T23:13:04.200Z,143963.58
2019-04-30T23:18:00.201Z,143928.38
2019-04-30T23:22:56.135Z,143904.91
2019-04-30T23:27:52.065Z,143834.47
2019-04-30T23:32:47.995Z,143867.34
2019-04-30T23:37:43.984Z,143853.25
2019-04-30T23:42:39.910Z,143749.97
2019-04-30T23:47:35.837Z,143811.02
2019-04-30T23:52:31.769Z,143862.63
2019-04-30T23:57:27.810Z,143860.28
